createdAt,value
2018-02-07T00:00:35.994Z,89.40
2018-02-07T00:03:03.554Z,89.40
2018-02-07T00:05:31.104Z,89.80
2018-02-07T00:07:58.620Z,90.10
2018-02-07T00:10:26.163Z,90.30
2018-02-07T00:12:53.684Z,90.40
2018-02-07T00:15:22.000Z,90.40
2018-02-07T00:17:49.530Z,90.30
2018-02-07T00:20:17.089Z,90.10
2018-02-07T00:22:44.672Z,90.20
2018-02-07T00:25:12.221Z,90.30
2018-02-07T00:27:39.769Z,90.30
2018-02-07T00:30:07.295Z,90.50
2018-02-07T00:32:34.857Z,90.60
2018-02-07T00:35:02.383Z,90.60
2018-02-07T00:37:29.933Z,90.90
2018-02-07T00:39:57.464Z,91.00
2018-02-07T00:42:25.073Z,91.00
2018-02-07T00:44:53.371Z,91.40
2018-02-07T00:47:20.923Z,91.40
2018-02-07T00:49:49.220Z,91.50
2018-02-07T00:52:17.534Z,91.20
2018-02-07T00:54:45.058Z,91.20
2018-02-07T00:57:12.592Z,91.20
2018-02-07T00:59:40.110Z,91.30
2018-02-07T01:02:08.423Z,91.30
2018-02-07T01:04:35.945Z,91.30
2018-02-07T01:07:03.488Z,91.20
2018-02-07T01:09:31.001Z,91.30
2018-02-07T01:11:58.540Z,91.30
2018-02-07T01:14:26.088Z,91.40
2018-02-07T01:16:53.640Z,91.50
2018-02-07T01:19:21.911Z,91.70
2018-02-07T01:21:49.428Z,91.70
2018-02-07T01:24:16.973Z,92.10
2018-02-07T01:26:45.256Z,92.10
2018-02-07T01:29:12.817Z,92.10
2018-02-07T01:31:40.346Z,92.10
2018-02-07T01:34:07.897Z,92.20
2018-02-07T01:36:35.408Z,92.50
2018-02-07T01:39:02.965Z,92.60
2018-02-07T01:41:30.483Z,92.70
2018-02-07T01:43:58.061Z,92.70
2018-02-07T01:46:26.356Z,92.90
2018-02-07T01:48:54.669Z,93.00
2018-02-07T01:51:22.201Z,93.00
2018-02-07T01:53:50.530Z,93.50
2018-02-07T01:56:18.049Z,93.20
2018-02-07T01:58:45.600Z,93.20
2018-02-07T02:01:13.139Z,93.30
2018-02-07T02:03:40.682Z,93.20
2018-02-07T02:06:08.210Z,93.20
2018-02-07T02:08:35.739Z,93.30
2018-02-07T02:11:04.026Z,93.40
2018-02-07T02:13:32.328Z,93.40
2018-02-07T02:16:00.609Z,93.50
2018-02-07T02:18:28.900Z,93.60
2018-02-07T02:20:57.173Z,93.60
2018-02-07T02:23:24.725Z,93.60
2018-02-07T02:25:52.245Z,93.60
2018-02-07T02:28:19.760Z,93.60
2018-02-07T02:30:47.288Z,93.60
2018-02-07T02:33:14.806Z,93.60
2018-02-07T02:35:42.342Z,93.30
2018-02-07T02:38:09.864Z,93.20
2018-02-07T02:40:37.394Z,93.20
2018-02-07T02:43:04.900Z,93.10
2018-02-07T02:45:32.437Z,93.40
2018-02-07T02:47:59.971Z,93.30
2018-02-07T02:50:28.272Z,93.20
2018-02-07T02:52:55.786Z,93.20
2018-02-07T02:55:23.330Z,93.10
2018-02-07T02:57:50.846Z,92.90
2018-02-07T03:00:18.385Z,93.00
2018-02-07T03:02:45.897Z,92.90
2018-02-07T03:05:14.197Z,93.40
2018-02-07T03:07:42.471Z,93.30
2018-02-07T03:10:10.005Z,93.30
2018-02-07T03:12:37.511Z,93.20
2018-02-07T03:15:05.050Z,93.20
2018-02-07T03:17:32.568Z,93.30
2018-02-07T03:20:00.873Z,93.50
2018-02-07T03:22:29.157Z,93.30
2018-02-07T03:24:57.457Z,93.40
2018-02-07T03:27:24.981Z,93.40
2018-02-07T03:29:52.524Z,93.50
2018-02-07T03:32:20.044Z,93.50
2018-02-07T03:34:48.350Z,93.20
2018-02-07T03:37:16.667Z,93.20
2018-02-07T03:39:44.184Z,93.20
2018-02-07T03:42:11.721Z,93.10
2018-02-07T03:44:39.243Z,93.20
2018-02-07T03:47:07.544Z,93.50
2018-02-07T03:49:35.812Z,93.40
2018-02-07T03:52:03.356Z,93.40
2018-02-07T03:54:30.872Z,93.60
2018-02-07T03:56:59.177Z,93.20
2018-02-07T03:59:26.685Z,93.20
2018-02-07T04:01:54.989Z,93.30
2018-02-07T04:04:22.503Z,93.30
2018-02-07T04:06:50.810Z,93.60
2018-02-07T04:09:18.326Z,93.60
2018-02-07T04:11:45.860Z,93.50
2018-02-07T04:14:13.388Z,93.30
2018-02-07T04:16:41.688Z,93.20
2018-02-07T04:19:09.968Z,93.20
2018-02-07T04:21:37.498Z,93.20
2018-02-07T04:24:05.014Z,93.10
2018-02-07T04:26:33.310Z,93.10
2018-02-07T04:29:01.592Z,93.00
2018-02-07T04:31:29.128Z,93.00
2018-02-07T04:33:56.646Z,93.10
2018-02-07T04:36:24.962Z,93.10
2018-02-07T04:38:52.483Z,93.10
2018-02-07T04:41:20.036Z,93.10
2018-02-07T04:43:47.584Z,93.20
2018-02-07T04:46:15.124Z,93.50
2018-02-07T04:48:43.439Z,93.40
2018-02-07T04:51:10.955Z,93.40
2018-02-07T04:53:38.493Z,93.30
2018-02-07T04:56:05.996Z,93.50
2018-02-07T04:58:33.530Z,93.70
2018-02-07T05:01:01.061Z,93.70
2018-02-07T05:03:29.370Z,93.90
2018-02-07T05:05:56.883Z,93.90
2018-02-07T05:08:24.404Z,94.00
2018-02-07T05:10:51.933Z,94.20
2018-02-07T05:13:19.493Z,94.40
2018-02-07T05:15:47.003Z,94.20
2018-02-07T05:18:15.296Z,94.20
2018-02-07T05:20:43.583Z,94.30
2018-02-07T05:23:11.888Z,94.10
2018-02-07T05:25:39.414Z,94.10
2018-02-07T05:28:06.955Z,94.00
2018-02-07T05:30:34.483Z,94.00
2018-02-07T05:33:02.796Z,94.20
2018-02-07T05:35:30.325Z,94.10
2018-02-07T05:37:57.871Z,94.00
2018-02-07T05:40:25.388Z,94.00
2018-02-07T05:42:53.696Z,94.00
2018-02-07T05:45:21.219Z,94.00
2018-02-07T05:47:48.751Z,94.10
2018-02-07T05:50:16.254Z,94.00
2018-02-07T05:52:43.774Z,94.10
2018-02-07T05:55:12.081Z,94.10
2018-02-07T05:57:39.612Z,94.10
2018-02-07T06:00:07.154Z,94.00
2018-02-07T06:02:34.668Z,94.00
2018-02-07T06:05:02.973Z,93.90
2018-02-07T06:07:30.500Z,93.90
2018-02-07T06:09:58.802Z,93.90
2018-02-07T06:12:26.316Z,93.90
2018-02-07T06:14:53.847Z,93.90
2018-02-07T06:17:21.361Z,93.90
2018-02-07T06:19:48.905Z,93.70
2018-02-07T06:22:17.190Z,93.70
2018-02-07T06:24:45.502Z,93.70
2018-02-07T06:27:13.018Z,93.60
2018-02-07T06:29:40.556Z,93.70
2018-02-07T06:32:08.083Z,93.60
2018-02-07T06:34:35.619Z,93.60
2018-02-07T06:37:03.130Z,93.60
2018-02-07T06:39:31.448Z,93.60
2018-02-07T06:41:58.970Z,93.30
2018-02-07T06:44:26.513Z,93.30
2018-02-07T06:46:54.034Z,93.40
2018-02-07T06:49:21.567Z,93.30
2018-02-07T06:51:49.085Z,93.20
2018-02-07T06:54:17.386Z,93.30
2018-02-07T06:56:45.694Z,93.40
2018-02-07T06:59:13.249Z,93.40
2018-02-07T07:01:40.757Z,93.50
2018-02-07T07:04:08.272Z,93.50
2018-02-07T07:06:35.822Z,93.50
2018-02-07T07:09:03.331Z,93.60
2018-02-07T07:11:31.637Z,93.60
2018-02-07T07:13:59.157Z,93.60
2018-02-07T07:16:26.812Z,93.50
2018-02-07T07:18:54.327Z,93.30
2018-02-07T07:21:22.628Z,93.20
2018-02-07T07:23:50.914Z,93.00
2018-02-07T07:26:19.229Z,92.80
2018-02-07T07:28:46.757Z,92.80
2018-02-07T07:31:14.327Z,92.80
2018-02-07T07:33:41.849Z,92.60
2018-02-07T07:36:09.399Z,92.50
2018-02-07T07:38:37.686Z,92.40
2018-02-07T07:41:05.990Z,92.30
2018-02-07T07:43:33.515Z,92.20
2018-02-07T07:46:01.067Z,92.00
2018-02-07T07:48:28.590Z,92.00
2018-02-07T07:50:56.900Z,92.00
2018-02-07T07:53:24.422Z,92.00
2018-02-07T07:55:51.957Z,92.00
2018-02-07T07:58:19.482Z,91.80
2018-02-07T08:00:47.788Z,91.70
2018-02-07T08:03:15.314Z,91.70
2018-02-07T08:05:42.841Z,91.90
2018-02-07T08:08:10.359Z,91.70
2018-02-07T08:10:37.900Z,91.30
2018-02-07T08:13:05.438Z,91.30
2018-02-07T08:15:33.733Z,91.10
2018-02-07T08:18:01.268Z,91.10
2018-02-07T08:20:28.885Z,91.30
2018-02-07T08:22:56.425Z,91.20
2018-02-07T08:25:23.946Z,91.10
2018-02-07T08:27:51.491Z,91.20
2018-02-07T08:30:19.769Z,90.90
2018-02-07T08:32:48.063Z,90.80
2018-02-07T08:35:16.349Z,90.60
2018-02-07T08:37:44.648Z,90.50
2018-02-07T08:40:12.167Z,90.50
2018-02-07T08:42:39.704Z,90.50
2018-02-07T08:45:07.228Z,90.20
2018-02-07T08:47:34.765Z,90.30
2018-02-07T08:50:02.288Z,90.00
2018-02-07T08:52:30.590Z,90.10
2018-02-07T08:54:58.893Z,90.00
2018-02-07T08:57:26.420Z,90.00
2018-02-07T08:59:53.938Z,88.70
2018-02-07T09:02:21.473Z,88.90
2018-02-07T09:04:48.989Z,89.20
2018-02-07T09:07:16.521Z,88.20
2018-02-07T09:09:44.801Z,88.90
2018-02-07T09:12:12.332Z,88.30
2018-02-07T09:14:39.849Z,88.40
2018-02-07T09:17:08.204Z,87.10
2018-02-07T09:19:35.718Z,87.60
2018-02-07T09:22:04.045Z,86.90
2018-02-07T09:24:31.561Z,86.90
2018-02-07T09:26:59.173Z,86.20
2018-02-07T09:29:27.437Z,86.50
2018-02-07T09:31:54.950Z,86.30
2018-02-07T09:34:22.496Z,85.30
2018-02-07T09:36:50.780Z,85.00
2018-02-07T09:39:19.069Z,84.60
2018-02-07T09:41:47.342Z,85.30
2018-02-07T09:44:14.891Z,85.20
2018-02-07T09:46:42.388Z,85.00
2018-02-07T09:49:10.703Z,84.60
2018-02-07T09:51:38.221Z,84.50
2018-02-07T09:54:05.749Z,84.40
2018-02-07T09:56:33.258Z,84.20
2018-02-07T09:59:01.556Z,83.70
2018-02-07T10:01:29.073Z,83.70
2018-02-07T10:03:56.606Z,83.20
2018-02-07T10:06:24.108Z,83.10
2018-02-07T10:08:52.412Z,83.10
2018-02-07T10:11:19.933Z,83.00
2018-02-07T10:13:47.455Z,82.20
2018-02-07T10:16:14.969Z,82.10
2018-02-07T10:18:42.505Z,82.60
2018-02-07T10:21:10.012Z,82.30
2018-02-07T10:23:37.558Z,82.20
2018-02-07T10:26:05.076Z,82.80
2018-02-07T10:28:32.624Z,82.90
2018-02-07T10:31:00.136Z,82.20
2018-02-07T10:33:28.453Z,82.30
2018-02-07T10:35:55.959Z,82.20
2018-02-07T10:40:57.505Z,82.30
2018-02-07T10:43:25.133Z,82.50
2018-02-07T10:45:52.680Z,82.40
2018-02-07T10:48:20.213Z,82.30
2018-02-07T10:50:48.514Z,79.70
2018-02-07T10:53:16.015Z,79.80
2018-02-07T10:55:43.535Z,80.10
2018-02-07T10:58:11.804Z,79.60
2018-02-07T11:00:39.341Z,79.60
2018-02-07T11:03:06.858Z,79.00
2018-02-07T11:05:34.397Z,79.40
2018-02-07T11:08:01.916Z,79.60
2018-02-07T11:10:30.229Z,80.00
2018-02-07T11:12:57.736Z,79.90
2018-02-07T11:15:25.278Z,79.60
2018-02-07T11:17:52.800Z,79.00
2018-02-07T11:20:20.347Z,76.80
2018-02-07T11:22:47.860Z,77.00
2018-02-07T11:25:15.552Z,75.60
2018-02-07T11:27:43.064Z,76.70
2018-02-07T11:30:10.612Z,76.30
2018-02-07T11:32:38.151Z,75.40
2018-02-07T11:35:06.454Z,75.30
2018-02-07T11:37:37.240Z,75.20
2018-02-07T11:40:04.804Z,76.00
2018-02-07T11:42:32.303Z,76.00
2018-02-07T11:44:59.845Z,76.00
2018-02-07T11:47:27.406Z,76.70
2018-02-07T11:49:55.047Z,76.70
2018-02-07T11:52:23.319Z,75.50
2018-02-07T11:54:51.605Z,76.30
2018-02-07T12:00:09.736Z,76.00
2018-02-07T12:02:37.239Z,75.50
2018-02-07T12:05:18.748Z,75.60
2018-02-07T12:07:59.050Z,75.60
2018-02-07T12:10:27.494Z,75.60
2018-02-07T12:12:55.803Z,75.50
2018-02-07T12:15:23.415Z,75.60
2018-02-07T12:17:51.814Z,75.60
2018-02-07T12:20:19.371Z,75.60
2018-02-07T12:22:47.027Z,75.40
2018-02-07T12:25:14.578Z,75.50
2018-02-07T12:27:42.138Z,75.50
2018-02-07T12:30:09.696Z,75.50
2018-02-07T12:32:37.267Z,75.40
2018-02-07T12:35:04.819Z,75.50
2018-02-07T12:37:32.383Z,75.00
2018-02-07T12:40:00.695Z,75.30
2018-02-07T12:42:28.253Z,75.30
2018-02-07T12:44:55.796Z,74.20
2018-02-07T12:47:23.341Z,74.10
2018-02-07T12:49:50.883Z,73.30
2018-02-07T12:52:18.432Z,73.80
2018-02-07T12:54:46.723Z,74.70
2018-02-07T12:57:15.060Z,74.80
2018-02-07T12:59:42.617Z,74.60
2018-02-07T13:02:10.196Z,75.10
2018-02-07T13:04:37.765Z,73.50
2018-02-07T13:07:05.325Z,73.90
2018-02-07T13:09:32.894Z,73.70
2018-02-07T13:12:00.507Z,73.40
2018-02-07T13:14:28.045Z,73.50
2018-02-07T13:16:55.608Z,74.30
2018-02-07T13:19:23.185Z,74.80
2018-02-07T13:21:50.768Z,73.20
2018-02-07T13:24:18.349Z,73.20
2018-02-07T13:26:45.899Z,73.10
2018-02-07T13:29:13.412Z,73.90
2018-02-07T13:31:41.747Z,73.60
2018-02-07T13:36:48.958Z,73.10
2018-02-07T13:39:18.786Z,73.00
2018-02-07T13:41:46.385Z,73.00
2018-02-07T13:44:14.075Z,71.80
2018-02-07T13:46:41.685Z,72.20
2018-02-07T13:49:11.408Z,71.80
2018-02-07T13:51:38.962Z,72.60
2018-02-07T13:54:12.568Z,71.50
2018-02-07T13:56:40.206Z,70.90
2018-02-07T13:59:07.958Z,71.20
2018-02-07T14:01:46.283Z,71.60
2018-02-07T14:04:14.712Z,71.80
2018-02-07T14:06:42.371Z,71.80
2018-02-07T14:09:10.017Z,72.10
2018-02-07T14:11:37.604Z,72.50
2018-02-07T14:14:06.186Z,70.90
2018-02-07T14:16:36.897Z,70.80
2018-02-07T14:19:04.529Z,71.10
2018-02-07T14:21:34.391Z,71.80
2018-02-07T14:24:02.963Z,71.40
2018-02-07T14:26:30.808Z,71.70
2018-02-07T14:28:59.185Z,71.70
2018-02-07T14:31:26.983Z,71.80
2018-02-07T14:33:55.426Z,71.10
2018-02-07T14:36:24.552Z,71.00
2018-02-07T14:41:49.754Z,71.00
2018-02-07T14:44:18.752Z,71.40
2018-02-07T14:46:47.442Z,70.80
2018-02-07T14:49:22.348Z,70.70
2018-02-07T14:51:49.990Z,70.80
2018-02-07T14:54:17.713Z,71.70
2018-02-07T14:56:46.152Z,71.50
2018-02-07T14:59:13.752Z,71.40
2018-02-07T15:01:41.284Z,71.80
2018-02-07T15:04:09.608Z,71.70
2018-02-07T15:06:37.143Z,71.60
2018-02-07T15:09:05.469Z,71.70
2018-02-07T15:11:33.056Z,71.70
2018-02-07T15:14:00.712Z,71.70
2018-02-07T15:16:28.265Z,72.00
2018-02-07T15:18:55.853Z,72.00
2018-02-07T15:21:23.413Z,72.00
2018-02-07T15:23:50.994Z,72.00
2018-02-07T15:26:18.552Z,72.20
2018-02-07T15:28:46.100Z,72.30
2018-02-07T15:31:13.641Z,72.50
2018-02-07T15:33:41.187Z,72.50
2018-02-07T15:36:08.742Z,72.70
2018-02-07T15:38:36.289Z,72.50
2018-02-07T15:41:03.870Z,72.30
2018-02-07T15:43:32.158Z,73.60
2018-02-07T15:46:00.632Z,72.80
2018-02-07T15:48:28.176Z,72.80
2018-02-07T15:50:55.731Z,73.00
2018-02-07T15:53:23.292Z,72.80
2018-02-07T15:55:50.854Z,73.10
2018-02-07T15:58:18.393Z,73.20
2018-02-07T16:00:45.941Z,73.20
2018-02-07T16:03:13.491Z,73.10
2018-02-07T16:05:41.051Z,73.00
2018-02-07T16:08:08.581Z,72.70
2018-02-07T16:10:36.186Z,73.10
2018-02-07T16:13:04.489Z,73.00
2018-02-07T16:15:32.973Z,73.00
2018-02-07T16:18:00.525Z,73.00
2018-02-07T16:20:28.083Z,72.90
2018-02-07T16:22:55.627Z,72.90
2018-02-07T16:25:23.205Z,72.60
2018-02-07T16:27:50.730Z,72.50
2018-02-07T16:30:19.023Z,72.80
2018-02-07T16:32:46.635Z,72.80
2018-02-07T16:35:14.178Z,72.90
2018-02-07T16:37:41.731Z,72.80
2018-02-07T16:40:09.300Z,73.00
2018-02-07T16:42:37.640Z,73.40
2018-02-07T16:45:05.180Z,73.30
2018-02-07T16:47:32.740Z,73.50
2018-02-07T16:50:01.042Z,73.40
2018-02-07T16:52:28.636Z,73.40
2018-02-07T16:54:56.980Z,74.00
2018-02-07T16:57:25.299Z,73.80
2018-02-07T16:59:52.853Z,73.80
2018-02-07T17:02:21.206Z,73.70
2018-02-07T17:04:48.749Z,73.70
2018-02-07T17:07:16.316Z,74.30
2018-02-07T17:09:43.865Z,74.00
2018-02-07T17:12:11.449Z,74.00
2018-02-07T17:14:38.995Z,73.90
2018-02-07T17:17:07.338Z,74.80
2018-02-07T17:19:36.797Z,75.40
2018-02-07T17:22:05.256Z,74.80
2018-02-07T17:24:32.788Z,74.80
2018-02-07T17:27:00.338Z,74.80
2018-02-07T17:29:28.637Z,74.80
2018-02-07T17:31:56.960Z,74.70
2018-02-07T17:34:24.511Z,74.60
2018-02-07T17:36:52.065Z,74.70
2018-02-07T17:39:19.622Z,74.70
2018-02-07T17:41:47.180Z,75.40
2018-02-07T17:44:14.702Z,74.70
2018-02-07T17:46:42.231Z,74.70
2018-02-07T17:49:09.770Z,74.70
2018-02-07T17:51:37.294Z,74.60
2018-02-07T17:54:05.613Z,74.90
2018-02-07T17:56:33.210Z,74.80
2018-02-07T17:59:00.738Z,74.90
2018-02-07T18:01:29.030Z,74.70
2018-02-07T18:03:56.598Z,74.70
2018-02-07T18:06:24.937Z,74.70
2018-02-07T18:08:53.272Z,74.80
2018-02-07T18:11:21.558Z,74.80
2018-02-07T18:13:49.880Z,74.70
2018-02-07T18:16:17.418Z,74.60
2018-02-07T18:18:45.762Z,74.70
2018-02-07T18:21:13.324Z,74.60
2018-02-07T18:23:40.883Z,74.80
2018-02-07T18:26:08.406Z,75.40
2018-02-07T18:28:35.966Z,74.70
2018-02-07T18:31:03.505Z,74.70
2018-02-07T18:33:31.844Z,74.10
2018-02-07T18:35:59.367Z,74.00
2018-02-07T18:38:26.939Z,74.50
2018-02-07T18:40:54.461Z,73.80
2018-02-07T18:43:22.785Z,74.40
2018-02-07T18:45:50.315Z,74.40
2018-02-07T18:48:17.861Z,74.60
2018-02-07T18:50:45.389Z,74.60
2018-02-07T18:53:13.690Z,74.70
2018-02-07T18:55:41.251Z,74.60
2018-02-07T18:58:08.810Z,74.00
2018-02-07T19:00:37.126Z,74.00
2018-02-07T19:03:04.658Z,74.00
2018-02-07T19:05:32.224Z,73.80
2018-02-07T19:07:59.753Z,74.00
2018-02-07T19:10:27.304Z,74.40
2018-02-07T19:12:55.005Z,74.70
2018-02-07T19:15:22.564Z,74.70
2018-02-07T19:17:50.142Z,74.70
2018-02-07T19:20:17.691Z,74.70
2018-02-07T19:22:46.061Z,74.70
2018-02-07T19:25:13.628Z,74.60
2018-02-07T19:27:41.149Z,74.70
2018-02-07T19:30:08.690Z,74.80
2018-02-07T19:32:36.257Z,74.70
2018-02-07T19:35:03.807Z,75.40
2018-02-07T19:37:31.340Z,74.90
2018-02-07T19:39:58.895Z,74.70
2018-02-07T19:42:26.422Z,74.70
2018-02-07T19:44:53.984Z,75.10
2018-02-07T19:47:21.535Z,75.30
2018-02-07T19:49:49.086Z,75.40
2018-02-07T19:52:16.606Z,75.70
2018-02-07T19:54:44.163Z,76.20
2018-02-07T19:57:11.688Z,76.60
2018-02-07T19:59:40.012Z,76.80
2018-02-07T20:02:07.546Z,76.80
2018-02-07T20:04:35.856Z,77.30
2018-02-07T20:07:03.387Z,77.30
2018-02-07T20:09:30.921Z,77.30
2018-02-07T20:11:58.472Z,77.50
2018-02-07T20:14:25.997Z,77.90
2018-02-07T20:16:53.598Z,77.90
2018-02-07T20:19:21.881Z,78.20
2018-02-07T20:21:50.195Z,79.20
2018-02-07T20:24:17.722Z,78.40
2018-02-07T20:26:45.267Z,78.40
2018-02-07T20:29:12.825Z,78.50
2018-02-07T20:31:40.369Z,78.60
2018-02-07T20:34:08.644Z,78.80
2018-02-07T20:36:36.952Z,79.10
2018-02-07T20:39:04.511Z,79.10
2018-02-07T20:41:32.924Z,79.70
2018-02-07T20:44:00.445Z,79.70
2018-02-07T20:46:27.986Z,80.20
2018-02-07T20:48:55.506Z,80.40
2018-02-07T20:51:23.052Z,80.50
2018-02-07T20:53:50.590Z,80.80
2018-02-07T20:56:18.142Z,81.00
2018-02-07T20:58:45.650Z,81.10
2018-02-07T21:01:13.192Z,81.20
2018-02-07T21:03:40.718Z,81.20
2018-02-07T21:06:08.257Z,81.30
2018-02-07T21:08:35.810Z,81.40
2018-02-07T21:11:03.406Z,81.60
2018-02-07T21:13:30.928Z,81.80
2018-02-07T21:15:59.272Z,81.60
2018-02-07T21:18:26.787Z,81.50
2018-02-07T21:20:55.102Z,81.80
2018-02-07T21:23:22.622Z,81.60
2018-02-07T21:25:50.142Z,81.80
2018-02-07T21:28:17.679Z,82.00
2018-02-07T21:30:45.213Z,82.10
2018-02-07T21:33:12.755Z,82.10
2018-02-07T21:35:40.268Z,82.30
2018-02-07T21:38:07.832Z,82.30
2018-02-07T21:40:35.350Z,82.10
2018-02-07T21:43:02.884Z,82.30
2018-02-07T21:45:30.397Z,82.30
2018-02-07T21:47:58.707Z,82.40
2018-02-07T21:50:26.251Z,82.40
2018-02-07T21:52:54.567Z,82.30
2018-02-07T21:55:22.091Z,82.30
2018-02-07T21:57:49.639Z,82.20
2018-02-07T22:00:17.177Z,82.30
2018-02-07T22:02:44.738Z,82.40
2018-02-07T22:05:13.028Z,82.50
2018-02-07T22:07:41.333Z,82.50
2018-02-07T22:10:08.858Z,82.40
2018-02-07T22:12:36.416Z,82.40
2018-02-07T22:15:03.956Z,82.40
2018-02-07T22:17:31.538Z,82.50
2018-02-07T22:19:59.057Z,82.50
2018-02-07T22:22:26.590Z,82.40
2018-02-07T22:24:54.110Z,82.50
2018-02-07T22:27:22.441Z,82.40
2018-02-07T22:29:49.962Z,82.40
2018-02-07T22:32:17.506Z,82.30
2018-02-07T22:34:45.044Z,82.40
2018-02-07T22:37:12.574Z,82.50
2018-02-07T22:39:40.088Z,82.80
2018-02-07T22:42:08.382Z,82.80
2018-02-07T22:44:35.928Z,82.60
2018-02-07T22:47:04.214Z,82.70
2018-02-07T22:49:32.523Z,82.60
2018-02-07T22:52:00.053Z,82.60
2018-02-07T22:54:27.602Z,82.70
2018-02-07T22:56:55.126Z,82.70
2018-02-07T22:59:23.434Z,83.00
2018-02-07T23:01:50.992Z,82.90
2018-02-07T23:04:19.323Z,83.10
2018-02-07T23:06:46.872Z,83.10
2018-02-07T23:09:14.443Z,83.00
2018-02-07T23:11:41.986Z,83.20
2018-02-07T23:14:10.308Z,82.70
2018-02-07T23:16:37.843Z,82.60
2018-02-07T23:19:06.165Z,83.20
2018-02-07T23:21:33.761Z,83.20
2018-02-07T23:24:01.322Z,83.40
2018-02-07T23:26:28.854Z,83.10
2018-02-07T23:28:57.172Z,83.20
2018-02-07T23:31:24.899Z,83.20
2018-02-07T23:33:52.466Z,83.20
2018-02-07T23:36:19.998Z,82.90
2018-02-07T23:38:47.551Z,82.90
2018-02-07T23:41:15.107Z,83.30
2018-02-07T23:43:43.421Z,83.80
2018-02-07T23:46:11.706Z,83.40
2018-02-07T23:48:39.453Z,83.40
2018-02-07T23:51:07.744Z,83.80
2018-02-07T23:53:35.276Z,83.70
2018-02-07T23:56:02.820Z,84.60
2018-02-07T23:58:30.346Z,83.90
